createdAt,value
2023-05-10T00:01:08.549Z,3.87
2023-05-10T00:03:10.863Z,4.50
2023-05-10T00:05:12.889Z,4.90
2023-05-10T00:07:15.240Z,5.20
2023-05-10T00:09:17.373Z,5.80
2023-05-10T00:11:20.964Z,4.60
2023-05-10T00:13:24.310Z,5.03
2023-05-10T00:15:26.563Z,4.93
2023-05-10T00:17:28.666Z,5.00
2023-05-10T00:19:30.916Z,5.00
2023-05-10T00:21:34.557Z,5.03
2023-05-10T00:23:36.503Z,5.27
2023-05-10T00:25:38.592Z,4.63
2023-05-10T00:27:40.585Z,4.93
2023-05-10T00:29:42.544Z,5.10
2023-05-10T00:31:44.566Z,4.77
2023-05-10T00:33:46.707Z,5.47
2023-05-10T00:35:48.871Z,4.77
2023-05-10T00:37:51.079Z,4.33
2023-05-10T00:39:53.181Z,5.07
2023-05-10T00:41:55.579Z,5.70
2023-05-10T00:43:57.909Z,5.50
2023-05-10T00:45:59.956Z,4.90
2023-05-10T00:48:03.416Z,5.20
2023-05-10T00:50:06.418Z,5.23
2023-05-10T00:52:09.362Z,5.20
2023-05-10T00:54:16.125Z,4.20
2023-05-10T00:56:18.455Z,4.70
2023-05-10T00:58:20.453Z,4.73
2023-05-10T01:00:22.647Z,4.77
2023-05-10T01:02:25.354Z,5.10
2023-05-10T01:04:27.559Z,4.83
2023-05-10T01:06:29.746Z,5.20
2023-05-10T01:08:31.749Z,4.97
2023-05-10T01:10:33.949Z,5.03
2023-05-10T01:12:39.633Z,5.33
2023-05-10T01:14:41.838Z,5.17
2023-05-10T01:16:45.353Z,5.10
2023-05-10T01:18:47.673Z,5.20
2023-05-10T01:20:59.659Z,4.83
2023-05-10T01:23:37.265Z,5.87
2023-05-10T01:25:51.128Z,5.60
2023-05-10T01:28:12.159Z,5.60
2023-05-10T01:30:44.605Z,4.93
2023-05-10T01:33:14.451Z,5.00
2023-05-10T01:35:33.646Z,5.70
2023-05-10T01:37:44.832Z,5.23
2023-05-10T01:39:53.862Z,5.80
2023-05-10T01:42:10.816Z,5.70
2023-05-10T01:44:49.201Z,5.27
2023-05-10T01:46:56.328Z,4.90
2023-05-10T01:49:01.852Z,5.60
2023-05-10T01:51:04.363Z,4.80
2023-05-10T01:53:11.785Z,4.97
2023-05-10T01:55:17.076Z,6.10
2023-05-10T01:57:21.083Z,5.40
2023-05-10T01:59:23.456Z,5.47
2023-05-10T02:01:27.144Z,5.60
2023-05-10T02:03:29.515Z,5.30
2023-05-10T02:05:33.697Z,4.80
2023-05-10T02:07:37.420Z,5.90
2023-05-10T02:09:39.524Z,5.17
2023-05-10T02:11:42.793Z,5.47
2023-05-10T02:13:46.099Z,5.50
2023-05-10T02:15:49.405Z,5.73
2023-05-10T02:17:52.215Z,5.50
2023-05-10T02:19:54.892Z,5.47
2023-05-10T02:21:58.358Z,4.60
2023-05-10T02:24:02.697Z,5.63
2023-05-10T02:26:06.911Z,5.97
2023-05-10T02:28:09.861Z,5.63
2023-05-10T02:30:12.188Z,5.80
2023-05-10T02:32:15.513Z,6.07
2023-05-10T02:34:18.873Z,5.60
2023-05-10T02:36:22.348Z,5.80
2023-05-10T02:38:25.548Z,5.73
2023-05-10T02:40:28.942Z,5.60
2023-05-10T02:42:34.320Z,6.20
2023-05-10T02:44:37.349Z,6.47
2023-05-10T02:46:39.563Z,5.97
2023-05-10T02:48:42.456Z,6.50
2023-05-10T02:50:46.319Z,6.33
2023-05-10T02:52:52.975Z,6.93
2023-05-10T02:55:02.527Z,7.00
2023-05-10T02:57:05.758Z,6.50
2023-05-10T02:59:07.805Z,6.50
2023-05-10T03:01:10.153Z,6.80
2023-05-10T03:03:12.174Z,6.70
2023-05-10T03:05:14.433Z,5.93
2023-05-10T03:07:17.994Z,6.50
2023-05-10T03:09:20.873Z,6.43
2023-05-10T03:11:50.552Z,6.17
2023-05-10T03:14:14.344Z,6.70
2023-05-10T03:16:18.106Z,6.23
2023-05-10T03:18:24.288Z,6.10
2023-05-10T03:20:31.906Z,6.40
2023-05-10T03:22:38.763Z,6.57
2023-05-10T03:24:42.367Z,6.80
2023-05-10T03:26:46.607Z,6.50
2023-05-10T03:28:53.899Z,6.93
2023-05-10T03:30:56.280Z,7.00
2023-05-10T03:32:58.542Z,6.93
2023-05-10T03:35:00.722Z,6.57
2023-05-10T03:37:02.761Z,6.97
2023-05-10T03:39:07.397Z,5.40
2023-05-10T03:41:09.750Z,6.13
2023-05-10T03:43:11.845Z,5.87
2023-05-10T03:45:13.979Z,5.93
2023-05-10T03:47:16.281Z,5.70
2023-05-10T03:49:18.737Z,6.00
2023-05-10T03:51:21.445Z,6.10
2023-05-10T03:53:24.377Z,6.20
2023-05-10T03:55:26.472Z,6.20
2023-05-10T03:57:28.510Z,6.00
2023-05-10T03:59:30.982Z,5.90
2023-05-10T04:01:33.014Z,6.40
2023-05-10T04:03:37.527Z,6.30
2023-05-10T04:05:40.745Z,6.00
2023-05-10T04:07:42.749Z,5.93
2023-05-10T04:09:44.761Z,6.10
2023-05-10T04:11:46.819Z,6.40
2023-05-10T04:13:48.824Z,5.77
2023-05-10T04:15:50.840Z,6.10
2023-05-10T04:17:52.950Z,6.27
2023-05-10T04:19:55.834Z,5.63
2023-05-10T04:21:58.391Z,5.43
2023-05-10T04:24:00.451Z,6.27
2023-05-10T04:26:02.952Z,5.90
2023-05-10T04:28:05.131Z,5.33
2023-05-10T04:30:09.867Z,5.77
2023-05-10T04:32:11.838Z,5.40
2023-05-10T04:34:13.868Z,6.10
2023-05-10T04:36:15.887Z,6.40
2023-05-10T04:38:18.015Z,5.83
2023-05-10T04:40:20.732Z,5.63
2023-05-10T04:42:22.937Z,5.40
2023-05-10T04:44:25.203Z,5.17
2023-05-10T04:46:27.636Z,5.97
2023-05-10T04:48:29.900Z,5.20
2023-05-10T04:50:32.648Z,5.47
2023-05-10T04:52:34.718Z,5.20
2023-05-10T04:54:36.899Z,4.93
2023-05-10T04:56:39.161Z,5.50
2023-05-10T04:58:41.431Z,5.57
2023-05-10T05:00:43.728Z,4.93
2023-05-10T05:02:49.146Z,5.73
2023-05-10T05:04:51.398Z,5.00
2023-05-10T05:06:54.070Z,5.20
2023-05-10T05:08:56.224Z,5.23
2023-05-10T05:10:58.232Z,4.80
2023-05-10T05:13:00.434Z,4.87
2023-05-10T05:15:02.868Z,5.50
2023-05-10T05:17:05.483Z,4.83
2023-05-10T05:19:07.558Z,4.50
2023-05-10T05:21:20.529Z,4.70
2023-05-10T05:23:25.744Z,4.60
2023-05-10T05:25:27.905Z,5.77
2023-05-10T05:27:30.391Z,5.27
2023-05-10T05:29:32.619Z,4.27
2023-05-10T05:31:34.758Z,5.10
2023-05-10T05:33:37.028Z,5.10
2023-05-10T05:35:39.047Z,4.63
2023-05-10T05:37:41.229Z,4.50
2023-05-10T05:39:43.892Z,4.67
2023-05-10T05:41:45.949Z,4.67
2023-05-10T05:43:47.949Z,4.23
2023-05-10T05:45:50.560Z,4.73
2023-05-10T05:47:52.715Z,3.80
2023-05-10T05:49:54.731Z,3.70
2023-05-10T05:52:01.649Z,4.10
2023-05-10T05:54:05.356Z,3.77
2023-05-10T05:56:07.634Z,3.93
2023-05-10T05:58:09.713Z,3.47
2023-05-10T06:00:12.140Z,3.40
2023-05-10T06:02:17.189Z,3.33
2023-05-10T06:04:19.708Z,3.37
2023-05-10T06:06:21.746Z,3.67
2023-05-10T06:08:23.785Z,3.60
2023-05-10T06:10:26.511Z,3.87
2023-05-10T06:12:28.510Z,3.70
2023-05-10T06:14:30.655Z,3.60
2023-05-10T06:16:32.848Z,3.77
2023-05-10T06:18:34.852Z,4.17
2023-05-10T06:20:36.858Z,3.80
2023-05-10T06:22:38.889Z,3.70
2023-05-10T06:24:40.832Z,3.83
2023-05-10T06:26:42.879Z,3.33
2023-05-10T06:28:44.900Z,3.70
2023-05-10T06:30:46.940Z,3.20
2023-05-10T06:32:48.912Z,3.93
2023-05-10T06:34:50.992Z,3.60
2023-05-10T06:36:52.963Z,3.67
2023-05-10T06:38:55.115Z,3.60
2023-05-10T06:40:58.155Z,4.07
2023-05-10T06:43:00.655Z,3.70
2023-05-10T06:45:03.280Z,3.67
2023-05-10T06:47:05.448Z,3.50
2023-05-10T06:49:07.490Z,3.77
2023-05-10T06:51:09.507Z,4.23
2023-05-10T06:53:12.723Z,3.97
2023-05-10T06:55:15.175Z,3.60
2023-05-10T06:57:30.625Z,3.17
2023-05-10T06:59:33.702Z,3.90
2023-05-10T07:01:35.923Z,3.20
2023-05-10T07:03:38.029Z,3.80
2023-05-10T07:05:40.101Z,3.80
2023-05-10T07:07:42.378Z,3.60
2023-05-10T07:09:44.533Z,3.67
2023-05-10T07:11:46.554Z,3.73
2023-05-10T07:13:48.974Z,3.93
2023-05-10T07:15:51.076Z,3.60
2023-05-10T07:17:53.349Z,3.83
2023-05-10T07:19:55.537Z,4.10
2023-05-10T07:21:57.738Z,4.60
2023-05-10T07:24:01.263Z,3.90
2023-05-10T07:26:03.385Z,3.90
2023-05-10T07:28:05.501Z,3.70
2023-05-10T07:30:08.380Z,3.90
2023-05-10T07:32:10.425Z,4.17
2023-05-10T07:34:12.450Z,4.80
2023-05-10T07:36:14.571Z,4.07
2023-05-10T07:38:16.651Z,3.97
2023-05-10T07:40:18.690Z,4.40
2023-05-10T07:42:20.984Z,4.40
2023-05-10T07:44:23.338Z,4.50
2023-05-10T07:46:25.592Z,4.07
2023-05-10T07:48:27.680Z,3.70
2023-05-10T07:50:29.716Z,4.17
2023-05-10T07:52:31.854Z,4.47
2023-05-10T07:54:34.846Z,4.00
2023-05-10T07:56:37.193Z,4.87
2023-05-10T07:58:39.418Z,4.03
2023-05-10T08:00:42.260Z,3.70
2023-05-10T08:02:44.434Z,4.10
2023-05-10T08:04:46.581Z,4.10
2023-05-10T08:06:48.785Z,5.20
2023-05-10T08:08:51.560Z,4.80
2023-05-10T08:10:53.682Z,4.10
2023-05-10T08:12:55.777Z,4.30
2023-05-10T08:14:58.306Z,4.47
2023-05-10T08:17:00.334Z,5.13
2023-05-10T08:19:02.587Z,4.07
2023-05-10T08:21:05.204Z,4.17
2023-05-10T08:23:07.375Z,4.20
2023-05-10T08:25:09.607Z,4.27
2023-05-10T08:27:11.828Z,4.77
2023-05-10T08:29:13.898Z,4.33
2023-05-10T08:31:16.707Z,4.13
2023-05-10T08:33:19.863Z,5.03
2023-05-10T08:35:22.028Z,4.17
2023-05-10T08:37:24.813Z,4.30
2023-05-10T08:39:30.457Z,4.40
2023-05-10T08:41:34.536Z,5.10
2023-05-10T08:43:37.023Z,4.03
2023-05-10T08:45:41.381Z,4.50
2023-05-10T08:47:43.579Z,4.07
2023-05-10T08:49:49.685Z,3.97
2023-05-10T08:51:53.526Z,4.80
2023-05-10T08:53:55.876Z,3.93
2023-05-10T08:55:58.416Z,4.70
2023-05-10T08:58:04.819Z,4.17
2023-05-10T09:00:07.705Z,4.03
2023-05-10T09:02:11.335Z,4.43
2023-05-10T09:04:13.984Z,4.90
2023-05-10T09:06:16.821Z,4.57
2023-05-10T09:08:19.612Z,4.00
2023-05-10T09:10:21.913Z,4.30
2023-05-10T09:12:24.456Z,3.70
2023-05-10T09:14:26.969Z,3.60
2023-05-10T09:16:29.083Z,4.00
2023-05-10T09:18:31.961Z,3.77
2023-05-10T09:20:34.193Z,3.80
2023-05-10T09:22:36.648Z,4.63
2023-05-10T09:24:43.391Z,3.73
2023-05-10T09:26:49.658Z,3.80
2023-05-10T09:28:51.648Z,3.97
2023-05-10T09:30:56.714Z,3.77
2023-05-10T09:33:00.134Z,4.37
2023-05-10T09:35:08.017Z,4.67
2023-05-10T09:37:10.602Z,4.20
2023-05-10T09:39:12.854Z,4.17
2023-05-10T09:41:22.491Z,4.33
2023-05-10T09:43:24.750Z,4.13
2023-05-10T09:45:31.975Z,4.50
2023-05-10T09:47:37.283Z,5.00
2023-05-10T09:49:39.298Z,5.13
2023-05-10T09:51:41.305Z,4.50
2023-05-10T09:53:43.654Z,4.07
2023-05-10T09:55:47.575Z,4.00
2023-05-10T09:57:50.780Z,4.27
2023-05-10T09:59:55.246Z,4.10
2023-05-10T10:01:58.516Z,3.77
2023-05-10T10:04:04.669Z,4.27
2023-05-10T10:06:18.751Z,4.13
2023-05-10T10:08:25.454Z,4.50
2023-05-10T10:10:28.194Z,3.83
2023-05-10T10:12:30.276Z,4.30
2023-05-10T10:14:32.546Z,4.50
2023-05-10T10:16:34.897Z,4.70
2023-05-10T10:18:39.821Z,4.10
2023-05-10T10:20:42.131Z,4.90
2023-05-10T10:22:47.466Z,4.60
2023-05-10T10:24:49.764Z,4.20
2023-05-10T10:26:53.803Z,4.43
2023-05-10T10:29:33.562Z,4.30
2023-05-10T10:31:59.706Z,4.10
2023-05-10T10:34:10.898Z,4.33
2023-05-10T10:36:13.604Z,4.97
2023-05-10T10:38:15.794Z,4.73
2023-05-10T10:40:34.448Z,4.17
2023-05-10T10:42:51.007Z,4.40
2023-05-10T10:45:13.384Z,4.27
2023-05-10T10:47:19.847Z,4.60
2023-05-10T10:49:22.112Z,4.77
2023-05-10T10:51:24.302Z,4.37
2023-05-10T10:53:29.860Z,5.07
2023-05-10T10:55:32.236Z,5.43
2023-05-10T10:58:01.215Z,5.00
2023-05-10T11:00:23.690Z,4.77
2023-05-10T11:02:52.597Z,5.40
2023-05-10T11:04:54.946Z,5.40
2023-05-10T11:07:17.437Z,5.57
2023-05-10T11:09:19.711Z,5.80
2023-05-10T11:11:22.308Z,5.90
2023-05-10T11:13:39.806Z,5.67
2023-05-10T11:15:49.492Z,6.20
2023-05-10T11:17:53.547Z,6.63
2023-05-10T11:20:12.150Z,6.73
2023-05-10T11:22:14.832Z,6.10
2023-05-10T11:24:19.001Z,6.70
2023-05-10T11:26:24.271Z,6.50
2023-05-10T11:28:27.980Z,6.73
2023-05-10T11:30:30.304Z,6.80
2023-05-10T11:32:32.867Z,7.83
2023-05-10T11:34:35.046Z,8.40
2023-05-10T11:36:37.678Z,8.53
2023-05-10T11:38:39.798Z,9.37
2023-05-10T11:40:42.287Z,9.80
2023-05-10T11:42:44.446Z,8.57
2023-05-10T11:44:47.019Z,10.80
2023-05-10T11:46:50.106Z,10.60
2023-05-10T11:48:58.596Z,10.80
2023-05-10T11:51:03.077Z,9.73
2023-05-10T11:53:05.347Z,10.17
2023-05-10T11:55:07.896Z,10.83
2023-05-10T11:57:10.072Z,10.70
2023-05-10T11:59:15.776Z,11.33
2023-05-10T12:01:18.092Z,12.10
2023-05-10T12:03:20.521Z,11.93
2023-05-10T12:05:22.913Z,10.93
2023-05-10T12:07:27.271Z,10.70
2023-05-10T12:09:42.672Z,11.20
2023-05-10T12:11:45.997Z,11.20
2023-05-10T12:13:48.495Z,11.20
2023-05-10T12:15:50.967Z,10.13
2023-05-10T12:17:53.242Z,11.03
2023-05-10T12:19:55.813Z,10.60
2023-05-10T12:21:57.955Z,11.57
2023-05-10T12:24:02.861Z,11.30
2023-05-10T12:26:05.492Z,10.07
2023-05-10T12:28:09.439Z,9.80
2023-05-10T12:30:12.337Z,9.87
2023-05-10T12:32:14.819Z,9.70
2023-05-10T12:34:34.716Z,10.70
2023-05-10T12:36:39.729Z,10.47
2023-05-10T12:38:44.375Z,10.23
2023-05-10T12:40:46.652Z,9.67
2023-05-10T12:42:49.849Z,17.67
2023-05-10T12:44:56.875Z,24.60
2023-05-10T12:46:59.005Z,17.33
2023-05-10T12:49:08.441Z,14.93
2023-05-10T12:51:12.941Z,11.53
2023-05-10T12:53:16.631Z,10.00
2023-05-10T12:55:19.023Z,9.97
2023-05-10T12:57:21.875Z,10.57
2023-05-10T12:59:24.150Z,9.40
2023-05-10T13:01:26.488Z,9.57
2023-05-10T13:03:28.648Z,11.20
2023-05-10T13:05:30.974Z,9.40
2023-05-10T13:07:33.146Z,9.97
2023-05-10T13:09:35.520Z,11.70
2023-05-10T13:11:37.905Z,10.97
2023-05-10T13:13:40.130Z,10.93
2023-05-10T13:15:42.379Z,10.63
2023-05-10T13:17:46.349Z,9.87
2023-05-10T13:19:48.576Z,10.90
2023-05-10T13:21:50.884Z,9.90
2023-05-10T13:23:53.683Z,10.30
2023-05-10T13:25:56.141Z,10.47
2023-05-10T13:27:58.490Z,11.27
2023-05-10T13:30:00.705Z,10.53
2023-05-10T13:32:03.172Z,11.13
2023-05-10T13:34:06.325Z,10.57
2023-05-10T13:36:08.670Z,10.90
2023-05-10T13:38:11.192Z,11.40
2023-05-10T13:40:13.485Z,10.20
2023-05-10T13:42:15.616Z,11.10
2023-05-10T13:44:17.811Z,11.40
2023-05-10T13:46:20.435Z,11.23
2023-05-10T13:48:22.718Z,12.23
2023-05-10T13:50:24.893Z,11.43
2023-05-10T13:52:27.620Z,11.40
2023-05-10T13:54:30.504Z,12.40
2023-05-10T13:56:32.685Z,12.00
2023-05-10T13:58:36.021Z,12.97
2023-05-10T14:00:38.186Z,12.10
2023-05-10T14:02:40.537Z,12.27
2023-05-10T14:04:42.838Z,13.13
2023-05-10T14:06:44.968Z,13.23
2023-05-10T14:08:47.351Z,13.67
2023-05-10T14:10:50.104Z,12.97
2023-05-10T14:12:52.372Z,12.67
2023-05-10T14:14:54.750Z,13.10
2023-05-10T14:16:56.977Z,12.40
2023-05-10T14:18:59.164Z,11.60
2023-05-10T14:21:01.357Z,11.30
2023-05-10T14:23:03.592Z,11.70
2023-05-10T14:25:08.890Z,12.43
2023-05-10T14:27:11.113Z,12.30
2023-05-10T14:29:13.419Z,11.63
2023-05-10T14:31:18.024Z,11.47
2023-05-10T14:33:21.519Z,11.80
2023-05-10T14:35:24.057Z,12.27
2023-05-10T14:37:27.040Z,12.27
2023-05-10T14:39:31.189Z,12.20
2023-05-10T14:41:33.920Z,12.60
2023-05-10T14:43:37.331Z,12.90
2023-05-10T14:45:39.569Z,12.60
2023-05-10T14:47:41.875Z,12.67
2023-05-10T14:49:44.064Z,11.93
2023-05-10T14:51:46.664Z,12.00
2023-05-10T14:53:50.347Z,11.20
2023-05-10T14:55:52.539Z,11.13
2023-05-10T14:57:55.285Z,11.10
2023-05-10T14:59:58.080Z,11.13
2023-05-10T15:02:00.759Z,12.13
2023-05-10T15:04:03.682Z,11.90
2023-05-10T15:06:06.823Z,12.97
2023-05-10T15:08:10.295Z,13.10
2023-05-10T15:10:12.883Z,12.30
2023-05-10T15:12:15.079Z,13.20
2023-05-10T15:14:17.406Z,13.20
2023-05-10T15:16:19.801Z,11.93
2023-05-10T15:18:23.719Z,11.50
2023-05-10T15:20:25.952Z,11.97
2023-05-10T15:22:29.309Z,11.67
2023-05-10T15:24:31.681Z,12.10
2023-05-10T15:26:33.961Z,13.80
2023-05-10T15:28:36.166Z,14.37
2023-05-10T15:30:38.320Z,12.30
2023-05-10T15:32:41.175Z,12.17
2023-05-10T15:34:43.509Z,11.70
2023-05-10T15:36:46.065Z,11.60
2023-05-10T15:38:48.246Z,12.00
2023-05-10T15:40:50.553Z,11.47
2023-05-10T15:42:52.734Z,11.63
2023-05-10T15:44:54.960Z,12.73
2023-05-10T15:46:57.174Z,13.00
2023-05-10T15:48:59.892Z,11.03
2023-05-10T15:51:02.161Z,11.77
2023-05-10T15:53:04.407Z,12.53
2023-05-10T15:55:12.856Z,11.43
2023-05-10T15:57:15.385Z,10.50
2023-05-10T15:59:17.582Z,11.73
2023-05-10T16:01:19.826Z,11.40
2023-05-10T16:03:22.106Z,8.90
2023-05-10T16:05:24.850Z,7.57
2023-05-10T16:07:27.096Z,6.60
2023-05-10T16:09:29.286Z,6.80
2023-05-10T16:11:31.482Z,6.77
2023-05-10T16:13:34.853Z,7.37
2023-05-10T16:15:37.033Z,6.80
2023-05-10T16:17:39.367Z,6.83
2023-05-10T16:19:41.634Z,6.90
2023-05-10T16:21:43.997Z,7.17
2023-05-10T16:23:46.589Z,7.37
2023-05-10T16:25:48.861Z,6.77
2023-05-10T16:27:51.207Z,6.50
2023-05-10T16:29:53.461Z,6.37
2023-05-10T16:31:55.672Z,6.37
2023-05-10T16:33:57.830Z,5.80
2023-05-10T16:36:00.103Z,6.00
2023-05-10T16:38:02.366Z,6.80
2023-05-10T16:40:05.325Z,6.00
2023-05-10T16:42:07.573Z,5.63
2023-05-10T16:44:09.944Z,6.30
2023-05-10T16:46:12.551Z,6.70
2023-05-10T16:48:14.818Z,6.50
2023-05-10T16:50:17.339Z,5.93
2023-05-10T16:52:19.596Z,7.40
2023-05-10T16:54:22.155Z,7.03
2023-05-10T16:56:24.468Z,7.30
2023-05-10T16:58:26.937Z,7.77
2023-05-10T17:00:29.361Z,7.67
2023-05-10T17:02:31.626Z,8.27
2023-05-10T17:04:34.064Z,8.30
2023-05-10T17:06:37.519Z,8.97
2023-05-10T17:08:40.018Z,10.53
2023-05-10T17:10:42.313Z,9.40
2023-05-10T17:12:45.581Z,9.37
2023-05-10T17:14:47.822Z,8.30
2023-05-10T17:16:52.752Z,8.53
2023-05-10T17:18:55.195Z,8.77
2023-05-10T17:20:57.467Z,8.13
2023-05-10T17:22:59.713Z,9.00
2023-05-10T17:25:01.957Z,8.13
2023-05-10T17:27:04.465Z,7.70
2023-05-10T17:29:06.652Z,7.57
2023-05-10T17:31:08.918Z,7.47
2023-05-10T17:33:11.190Z,6.33
2023-05-10T17:35:13.765Z,6.73
2023-05-10T17:37:16.010Z,7.20
2023-05-10T17:39:18.213Z,7.50
2023-05-10T17:41:20.440Z,6.80
2023-05-10T17:43:23.495Z,7.30
2023-05-10T17:45:26.466Z,7.60
2023-05-10T17:47:28.730Z,7.37
2023-05-10T17:49:31.104Z,6.60
2023-05-10T17:51:33.340Z,7.70
2023-05-10T17:53:35.693Z,8.37
2023-05-10T17:55:41.144Z,7.50
2023-05-10T17:57:43.375Z,8.87
2023-05-10T17:59:45.563Z,7.10
2023-05-10T18:01:47.805Z,6.77
2023-05-10T18:03:50.111Z,6.47
2023-05-10T18:05:55.373Z,6.47
2023-05-10T18:07:57.689Z,6.53
2023-05-10T18:10:02.249Z,6.10
2023-05-10T18:12:05.193Z,6.00
2023-05-10T18:14:07.653Z,5.93
2023-05-10T18:16:12.782Z,6.40
2023-05-10T18:18:15.081Z,6.50
2023-05-10T18:20:17.275Z,6.40
2023-05-10T18:22:19.468Z,5.83
2023-05-10T18:24:30.469Z,6.70
2023-05-10T18:26:39.594Z,6.17
2023-05-10T18:28:44.198Z,6.30
2023-05-10T18:30:46.548Z,5.40
2023-05-10T18:32:48.881Z,6.03
2023-05-10T18:34:51.143Z,5.90
2023-05-10T18:36:53.392Z,5.70
2023-05-10T18:38:55.594Z,6.73
2023-05-10T18:40:57.875Z,5.90
2023-05-10T18:43:00.237Z,6.37
2023-05-10T18:45:03.438Z,6.77
2023-05-10T18:47:05.693Z,7.37
2023-05-10T18:49:08.521Z,7.47
2023-05-10T18:51:10.819Z,6.77
2023-05-10T18:53:12.986Z,7.40
2023-05-10T18:55:15.429Z,7.90
2023-05-10T18:57:17.868Z,8.20
2023-05-10T18:59:20.161Z,7.83
2023-05-10T19:01:22.359Z,8.33
2023-05-10T19:03:24.560Z,8.00
2023-05-10T19:05:30.190Z,7.53
2023-05-10T19:07:32.826Z,6.37
2023-05-10T19:09:34.961Z,7.20
2023-05-10T19:11:37.106Z,6.97
2023-05-10T19:13:39.246Z,6.67
2023-05-10T19:15:41.903Z,7.00
2023-05-10T19:17:44.292Z,7.40
2023-05-10T19:19:47.201Z,7.73
2023-05-10T19:21:51.101Z,7.57
2023-05-10T19:23:53.716Z,7.57
2023-05-10T19:25:55.879Z,8.20
2023-05-10T19:27:58.375Z,9.00
2023-05-10T19:30:01.742Z,8.53
2023-05-10T19:32:05.118Z,8.47
2023-05-10T19:34:07.413Z,8.80
2023-05-10T19:36:10.190Z,9.43
2023-05-10T19:38:12.484Z,9.20
2023-05-10T19:40:18.559Z,9.07
2023-05-10T19:42:21.155Z,8.10
2023-05-10T19:44:24.670Z,8.43
2023-05-10T19:46:27.886Z,10.13
2023-05-10T19:48:30.526Z,9.87
2023-05-10T19:50:32.770Z,9.17
2023-05-10T19:52:35.016Z,10.40
2023-05-10T19:54:38.111Z,10.80
2023-05-10T19:56:40.733Z,10.60
2023-05-10T19:58:42.936Z,10.40
2023-05-10T20:00:45.318Z,9.60
2023-05-10T20:02:47.626Z,9.50
2023-05-10T20:04:50.092Z,9.17
2023-05-10T20:06:52.265Z,9.23
2023-05-10T20:08:54.500Z,10.50
2023-05-10T20:11:02.567Z,9.50
2023-05-10T20:13:04.969Z,9.43
2023-05-10T20:15:08.031Z,9.90
2023-05-10T20:17:10.294Z,9.27
2023-05-10T20:19:12.594Z,10.53
2023-05-10T20:21:15.017Z,10.13
2023-05-10T20:23:17.183Z,10.20
2023-05-10T20:25:20.049Z,9.43
2023-05-10T20:27:22.283Z,10.47
2023-05-10T20:29:24.564Z,10.60
2023-05-10T20:31:26.849Z,10.20
2023-05-10T20:33:30.096Z,9.97
2023-05-10T20:35:32.991Z,9.83
2023-05-10T20:37:35.463Z,11.00
2023-05-10T20:39:37.694Z,9.53
2023-05-10T20:41:40.285Z,9.80
2023-05-10T20:43:42.456Z,9.40
2023-05-10T20:45:44.586Z,9.43
2023-05-10T20:47:46.733Z,10.03
2023-05-10T20:49:49.259Z,9.40
2023-05-10T20:51:51.417Z,9.10
2023-05-10T20:53:53.630Z,9.90
2023-05-10T20:55:55.861Z,10.03
2023-05-10T20:57:58.068Z,9.00
2023-05-10T21:00:00.288Z,9.73
2023-05-10T21:02:02.606Z,10.17
2023-05-10T21:04:04.830Z,9.90
2023-05-10T21:06:07.297Z,9.40
2023-05-10T21:08:09.432Z,9.00
2023-05-10T21:10:12.017Z,8.67
2023-05-10T21:12:14.307Z,8.90
2023-05-10T21:14:17.241Z,8.47
2023-05-10T21:16:19.766Z,9.00
2023-05-10T21:18:22.265Z,8.50
2023-05-10T21:20:25.391Z,8.10
2023-05-10T21:22:27.720Z,8.03
2023-05-10T21:24:29.931Z,8.30
2023-05-10T21:26:32.174Z,9.30
2023-05-10T21:28:34.291Z,8.97
2023-05-10T21:30:36.434Z,9.40
2023-05-10T21:32:38.715Z,8.20
2023-05-10T21:34:40.881Z,8.40
2023-05-10T21:36:43.041Z,8.47
2023-05-10T21:38:45.228Z,8.40
2023-05-10T21:40:47.691Z,8.93
2023-05-10T21:42:49.941Z,9.10
2023-05-10T21:44:52.435Z,9.80
2023-05-10T21:46:54.607Z,9.20
2023-05-10T21:48:56.855Z,9.20
2023-05-10T21:50:59.223Z,10.50
2023-05-10T21:53:01.699Z,10.00
2023-05-10T21:55:04.648Z,10.70
2023-05-10T21:57:06.828Z,10.30
2023-05-10T21:59:08.993Z,10.30
2023-05-10T22:01:11.312Z,11.10
2023-05-10T22:03:13.738Z,10.83
2023-05-10T22:05:16.124Z,11.43
2023-05-10T22:07:18.254Z,10.53
2023-05-10T22:09:20.783Z,11.30
2023-05-10T22:11:23.251Z,10.10
2023-05-10T22:13:25.755Z,11.50
2023-05-10T22:15:28.211Z,10.30
2023-05-10T22:17:30.389Z,10.50
2023-05-10T22:19:32.515Z,10.87
2023-05-10T22:21:34.670Z,11.07
2023-05-10T22:23:36.810Z,10.40
2023-05-10T22:25:39.047Z,9.80
2023-05-10T22:27:41.430Z,10.23
2023-05-10T22:29:43.554Z,10.37
2023-05-10T22:31:45.864Z,10.60
2023-05-10T22:33:47.883Z,10.20
2023-05-10T22:35:49.984Z,11.47
2023-05-10T22:37:52.111Z,10.60
2023-05-10T22:39:54.163Z,9.70
2023-05-10T22:41:56.414Z,10.60
2023-05-10T22:43:58.994Z,10.27
2023-05-10T22:46:01.170Z,10.33
2023-05-10T22:48:05.248Z,10.00
2023-05-10T22:50:08.081Z,8.90
2023-05-10T22:52:10.846Z,10.13
2023-05-10T22:54:12.921Z,9.03
2023-05-10T22:56:14.876Z,9.63
2023-05-10T22:58:17.178Z,10.30
2023-05-10T23:00:19.771Z,9.20
2023-05-10T23:02:22.118Z,9.47
2023-05-10T23:04:24.165Z,8.57
2023-05-10T23:06:27.810Z,9.10
2023-05-10T23:08:29.845Z,9.43
2023-05-10T23:10:32.223Z,9.00
2023-05-10T23:12:34.735Z,9.90
2023-05-10T23:14:37.007Z,9.57
2023-05-10T23:16:39.086Z,9.83
2023-05-10T23:18:41.216Z,8.43
2023-05-10T23:20:43.730Z,9.30
2023-05-10T23:22:45.919Z,9.93
2023-05-10T23:24:47.992Z,8.53
2023-05-10T23:26:49.977Z,9.97
2023-05-10T23:28:52.007Z,8.93
2023-05-10T23:31:00.059Z,8.57
2023-05-10T23:33:02.248Z,7.00
2023-05-10T23:35:04.609Z,8.27
2023-05-10T23:37:06.804Z,8.70
2023-05-10T23:39:08.784Z,9.87
2023-05-10T23:41:10.942Z,9.00
2023-05-10T23:43:14.629Z,10.50
2023-05-10T23:45:16.651Z,9.40
2023-05-10T23:47:19.620Z,9.33
2023-05-10T23:49:28.100Z,8.90
2023-05-10T23:51:30.102Z,10.57
2023-05-10T23:53:32.150Z,9.30
2023-05-10T23:55:34.302Z,9.80
2023-05-10T23:57:37.045Z,9.73
2023-05-10T23:59:39.096Z,10.23
